Pagrindinis puslapis
METAR-TAF:

METAR-TAF

Oro uostai :

Comiso, Italija

platuma: 36-59-30N, ilguma: 14-36-25E, Aukštis: 190 m

Dabartinis oras

Ataskaita buvo paskelbta 1 valandą ir 7 minutes, ne 05:50 UTC
Vėjas 3 kt iš Šiaurės Rytų
Temperatūra 18°C
Drėgmė 77%
Slėgis 1013 hPa
Matomumas 10 km arba daugiau
nėra debesų žemiau 1500 m ir nėra kamuolinių lietaus debesų

METAR: LICB 070550Z 04003KT CAVOK 18/14 Q1013

Laikas: 08:57 (06:57 UTC)

Prognozė

Ataskaita buvo paskelbta 1 valandą ir 57 minutes, ne 05:00 UTC
Prognozė galioja nuo 07 metu 06 UTC su 07 metu 15 UTC
Vėjas 5 kt nuo kintamojo kryptimis
Matomumas 10 km arba daugiau
Mažai debesys ne aukštis 3000 ft
Tapsmas
nuo 07 metu 07 UTC su 07 metu 09 UTC
Vėjas 12 kt iš Vakarų

TAF: LICB 070500Z 0706/0715 VRB05KT 9999 FEW030 BECMG 0707/0709 26012KT

Orai ataskaitas ir orų prognozės (METAR, TAF).

turimą stotys yra geltonos ir raudonos taškus žemėlapyje.

Perkelti pele per norėdami pamatyti stoties vardą.

Tada spustelėkite, norėdami matyti oro stebėjimo ir prognozės.

Norėdami pakeisti žemėlapį: spustelėkite ant žalios mygtukų su juodo kryžiaus žemyn,; žalią mygtuką su brūkšneliu, jei norite nutolinti; arba žalių rodyklių gretimoms žemėlapius.


METAR-TAF: